Windermere, Canada
Current Conditions -  °F | °C
As of 1:00 PM on Friday 31 Oct 2014 (Local Time) from CYXC Reporting Station
Broken Clouds Broken Clouds  
Wind Chill:   Ceiling: 13000
Heat Index:   Visibility: 10mi
Dew Point:   Wind: 3mph
Humidity: 93%   Direction: 30°NNE
Pressure: 29.76"   Gusts: NA
Location:  50.47°N, 115.97°W
Report Text: CYXC 311900Z 03003KT 010V090 10SM SCT002 BKN130 BKN220 06/05 A2976 RMK SF3AC3CI1 SLP093
Loading
Personal Weather Stations






























Interactive Weather Map
Tropical Storm Tracking
New forecast layout! Learn more

10-Day Weather Forecast

Advertisements
Track Severe Weather on mobile